sensor_id;sensor_type;location;lat;lon;timestamp;P1;durP1;ratioP1;P2;durP2;ratioP2
21128;SDS011;10722;51.910;8.352;2022-08-21T00:01:47;15.25;;;5.10;;
21128;SDS011;10722;51.910;8.352;2022-08-21T00:04:33;12.68;;;5.10;;
21128;SDS011;10722;51.910;8.352;2022-08-21T00:07:18;12.27;;;5.15;;
21128;SDS011;10722;51.910;8.352;2022-08-21T00:10:05;13.45;;;5.15;;
21128;SDS011;10722;51.910;8.352;2022-08-21T00:12:51;11.00;;;5.15;;
21128;SDS011;10722;51.910;8.352;2022-08-21T00:15:36;13.68;;;5.07;;
21128;SDS011;10722;51.910;8.352;2022-08-21T00:18:23;12.48;;;5.25;;
21128;SDS011;10722;51.910;8.352;2022-08-21T00:21:10;12.75;;;5.50;;
21128;SDS011;10722;51.910;8.352;2022-08-21T00:23:56;18.35;;;7.85;;
21128;SDS011;10722;51.910;8.352;2022-08-21T00:26:42;15.98;;;7.30;;
21128;SDS011;10722;51.910;8.352;2022-08-21T00:29:27;18.95;;;9.05;;
21128;SDS011;10722;51.910;8.352;2022-08-21T00:32:12;17.17;;;6.72;;
21128;SDS011;10722;51.910;8.352;2022-08-21T00:35:06;16.98;;;6.72;;
21128;SDS011;10722;51.910;8.352;2022-08-21T00:37:54;16.67;;;7.43;;
21128;SDS011;10722;51.910;8.352;2022-08-21T00:43:35;16.65;;;9.15;;
21128;SDS011;10722;51.910;8.352;2022-08-21T00:46:21;17.02;;;8.63;;
21128;SDS011;10722;51.910;8.352;2022-08-21T00:49:13;16.73;;;8.38;;
21128;SDS011;10722;51.910;8.352;2022-08-21T00:51:58;17.67;;;9.10;;
21128;SDS011;10722;51.910;8.352;2022-08-21T00:54:44;19.55;;;10.02;;
21128;SDS011;10722;51.910;8.352;2022-08-21T00:57:42;15.82;;;7.90;;
21128;SDS011;10722;51.910;8.352;2022-08-21T01:00:35;17.27;;;7.93;;
21128;SDS011;10722;51.910;8.352;2022-08-21T01:03:23;15.35;;;7.88;;
21128;SDS011;10722;51.910;8.352;2022-08-21T01:06:09;16.60;;;7.43;;
21128;SDS011;10722;51.910;8.352;2022-08-21T01:08:55;15.70;;;8.23;;
21128;SDS011;10722;51.910;8.352;2022-08-21T01:11:40;17.60;;;7.88;;
21128;SDS011;10722;51.910;8.352;2022-08-21T01:14:26;18.08;;;7.93;;
21128;SDS011;10722;51.910;8.352;2022-08-21T01:17:12;18.88;;;8.10;;
21128;SDS011;10722;51.910;8.352;2022-08-21T01:19:59;15.80;;;7.95;;
21128;SDS011;10722;51.910;8.352;2022-08-21T01:22:46;18.73;;;7.70;;
21128;SDS011;10722;51.910;8.352;2022-08-21T01:25:31;17.13;;;7.43;;
21128;SDS011;10722;51.910;8.352;2022-08-21T01:28:17;18.65;;;9.07;;
21128;SDS011;10722;51.910;8.352;2022-08-21T01:31:05;18.08;;;7.80;;
21128;SDS011;10722;51.910;8.352;2022-08-21T01:33:53;18.77;;;8.95;;
21128;SDS011;10722;51.910;8.352;2022-08-21T01:36:39;18.45;;;8.35;;
21128;SDS011;10722;51.910;8.352;2022-08-21T01:39:24;18.58;;;9.30;;
21128;SDS011;10722;51.910;8.352;2022-08-21T01:42:10;17.55;;;8.77;;
21128;SDS011;10722;51.910;8.352;2022-08-21T01:44:55;16.55;;;9.10;;
21128;SDS011;10722;51.910;8.352;2022-08-21T01:47:40;17.60;;;8.23;;
21128;SDS011;10722;51.910;8.352;2022-08-21T01:50:26;16.85;;;8.40;;
21128;SDS011;10722;51.910;8.352;2022-08-21T01:53:11;15.75;;;7.90;;
21128;SDS011;10722;51.910;8.352;2022-08-21T01:55:56;15.60;;;7.10;;
21128;SDS011;10722;51.910;8.352;2022-08-21T01:58:43;17.25;;;7.82;;
21128;SDS011;10722;51.910;8.352;2022-08-21T02:01:32;17.05;;;7.47;;
21128;SDS011;10722;51.910;8.352;2022-08-21T02:04:18;15.57;;;7.28;;
21128;SDS011;10722;51.910;8.352;2022-08-21T02:07:03;13.55;;;7.07;;
21128;SDS011;10722;51.910;8.352;2022-08-21T02:09:52;15.05;;;6.25;;
21128;SDS011;10722;51.910;8.352;2022-08-21T02:12:37;18.50;;;7.47;;
21128;SDS011;10722;51.910;8.352;2022-08-21T02:15:22;15.70;;;6.82;;
21128;SDS011;10722;51.910;8.352;2022-08-21T02:18:08;16.38;;;7.35;;
21128;SDS011;10722;51.910;8.352;2022-08-21T02:20:53;16.17;;;7.57;;
21128;SDS011;10722;51.910;8.352;2022-08-21T02:23:40;15.88;;;7.30;;
21128;SDS011;10722;51.910;8.352;2022-08-21T02:26:26;18.27;;;7.13;;
21128;SDS011;10722;51.910;8.352;2022-08-21T02:29:12;16.02;;;6.95;;
21128;SDS011;10722;51.910;8.352;2022-08-21T02:31:57;15.48;;;6.50;;
21128;SDS011;10722;51.910;8.352;2022-08-21T02:34:42;18.58;;;7.07;;
21128;SDS011;10722;51.910;8.352;2022-08-21T02:37:27;16.55;;;6.72;;
21128;SDS011;10722;51.910;8.352;2022-08-21T02:40:13;16.85;;;7.00;;
21128;SDS011;10722;51.910;8.352;2022-08-21T02:42:59;15.38;;;6.93;;
21128;SDS011;10722;51.910;8.352;2022-08-21T02:45:46;17.95;;;9.02;;
21128;SDS011;10722;51.910;8.352;2022-08-21T02:48:32;16.05;;;7.13;;
21128;SDS011;10722;51.910;8.352;2022-08-21T02:51:19;15.68;;;9.07;;
21128;SDS011;10722;51.910;8.352;2022-08-21T02:54:05;18.38;;;10.23;;
21128;SDS011;10722;51.910;8.352;2022-08-21T02:56:50;16.80;;;9.45;;
21128;SDS011;10722;51.910;8.352;2022-08-21T02:59:35;17.42;;;8.93;;
21128;SDS011;10722;51.910;8.352;2022-08-21T03:02:20;17.83;;;8.80;;
21128;SDS011;10722;51.910;8.352;2022-08-21T03:05:06;19.30;;;9.85;;
21128;SDS011;10722;51.910;8.352;2022-08-21T03:07:53;19.52;;;9.38;;
21128;SDS011;10722;51.910;8.352;2022-08-21T03:10:39;18.00;;;9.63;;
21128;SDS011;10722;51.910;8.352;2022-08-21T03:13:26;18.13;;;9.07;;
21128;SDS011;10722;51.910;8.352;2022-08-21T03:16:12;16.10;;;9.00;;
21128;SDS011;10722;51.910;8.352;2022-08-21T03:18:58;18.00;;;8.80;;
21128;SDS011;10722;51.910;8.352;2022-08-21T03:21:43;18.08;;;9.55;;
21128;SDS011;10722;51.910;8.352;2022-08-21T03:24:29;19.25;;;10.15;;
21128;SDS011;10722;51.910;8.352;2022-08-21T03:27:13;18.75;;;10.25;;
21128;SDS011;10722;51.910;8.352;2022-08-21T03:29:59;16.95;;;9.48;;
21128;SDS011;10722;51.910;8.352;2022-08-21T03:32:45;17.50;;;9.98;;
21128;SDS011;10722;51.910;8.352;2022-08-21T03:35:30;21.08;;;10.98;;
21128;SDS011;10722;51.910;8.352;2022-08-21T03:38:16;18.13;;;10.10;;
21128;SDS011;10722;51.910;8.352;2022-08-21T03:41:02;17.65;;;10.93;;
21128;SDS011;10722;51.910;8.352;2022-08-21T03:43:49;19.63;;;11.15;;
21128;SDS011;10722;51.910;8.352;2022-08-21T03:46:34;20.55;;;11.32;;
21128;SDS011;10722;51.910;8.352;2022-08-21T03:49:20;18.55;;;11.13;;
21128;SDS011;10722;51.910;8.352;2022-08-21T03:52:05;20.65;;;12.10;;
21128;SDS011;10722;51.910;8.352;2022-08-21T03:54:50;20.50;;;12.23;;
21128;SDS011;10722;51.910;8.352;2022-08-21T03:57:35;16.73;;;10.95;;
21128;SDS011;10722;51.910;8.352;2022-08-21T04:00:20;16.92;;;10.95;;
21128;SDS011;10722;51.910;8.352;2022-08-21T04:03:06;20.50;;;11.15;;
21128;SDS011;10722;51.910;8.352;2022-08-21T04:05:52;15.85;;;9.25;;
21128;SDS011;10722;51.910;8.352;2022-08-21T04:08:37;17.90;;;9.00;;
21128;SDS011;10722;51.910;8.352;2022-08-21T04:11:22;19.52;;;9.60;;
21128;SDS011;10722;51.910;8.352;2022-08-21T04:14:08;16.45;;;9.65;;
21128;SDS011;10722;51.910;8.352;2022-08-21T04:16:53;15.32;;;8.75;;
21128;SDS011;10722;51.910;8.352;2022-08-21T04:19:38;17.58;;;8.90;;
21128;SDS011;10722;51.910;8.352;2022-08-21T04:22:23;16.33;;;7.82;;
21128;SDS011;10722;51.910;8.352;2022-08-21T04:25:09;15.52;;;7.90;;
21128;SDS011;10722;51.910;8.352;2022-08-21T04:27:55;15.98;;;8.38;;
21128;SDS011;10722;51.910;8.352;2022-08-21T04:30:40;18.35;;;9.30;;
21128;SDS011;10722;51.910;8.352;2022-08-21T04:33:25;15.63;;;9.60;;
21128;SDS011;10722;51.910;8.352;2022-08-21T04:36:11;16.50;;;9.10;;
21128;SDS011;10722;51.910;8.352;2022-08-21T04:38:56;18.50;;;9.98;;
21128;SDS011;10722;51.910;8.352;2022-08-21T04:41:41;18.13;;;8.90;;
21128;SDS011;10722;51.910;8.352;2022-08-21T04:44:26;16.75;;;9.55;;
21128;SDS011;10722;51.910;8.352;2022-08-21T04:47:12;16.98;;;10.30;;
21128;SDS011;10722;51.910;8.352;2022-08-21T04:49:57;17.65;;;9.60;;
21128;SDS011;10722;51.910;8.352;2022-08-21T04:52:43;15.20;;;9.25;;
21128;SDS011;10722;51.910;8.352;2022-08-21T04:55:28;18.00;;;9.10;;
21128;SDS011;10722;51.910;8.352;2022-08-21T04:58:15;14.25;;;8.27;;
21128;SDS011;10722;51.910;8.352;2022-08-21T05:01:02;17.55;;;8.77;;
21128;SDS011;10722;51.910;8.352;2022-08-21T05:03:52;15.88;;;9.00;;
21128;SDS011;10722;51.910;8.352;2022-08-21T05:06:41;17.35;;;10.00;;
21128;SDS011;10722;51.910;8.352;2022-08-21T05:09:30;16.88;;;10.15;;
21128;SDS011;10722;51.910;8.352;2022-08-21T05:12:16;18.60;;;11.38;;
21128;SDS011;10722;51.910;8.352;2022-08-21T05:15:02;23.42;;;12.25;;
21128;SDS011;10722;51.910;8.352;2022-08-21T05:17:48;17.80;;;10.93;;
21128;SDS011;10722;51.910;8.352;2022-08-21T05:20:44;21.95;;;13.98;;
21128;SDS011;10722;51.910;8.352;2022-08-21T05:23:29;18.42;;;11.88;;
21128;SDS011;10722;51.910;8.352;2022-08-21T05:26:14;18.08;;;11.75;;
21128;SDS011;10722;51.910;8.352;2022-08-21T05:29:03;19.85;;;12.68;;
21128;SDS011;10722;51.910;8.352;2022-08-21T05:31:51;20.98;;;14.38;;
21128;SDS011;10722;51.910;8.352;2022-08-21T05:34:37;25.08;;;15.27;;
21128;SDS011;10722;51.910;8.352;2022-08-21T05:37:22;23.67;;;15.90;;
21128;SDS011;10722;51.910;8.352;2022-08-21T05:40:08;22.85;;;14.88;;
21128;SDS011;10722;51.910;8.352;2022-08-21T05:43:07;25.27;;;15.38;;
21128;SDS011;10722;51.910;8.352;2022-08-21T05:45:52;23.52;;;14.70;;
21128;SDS011;10722;51.910;8.352;2022-08-21T05:48:38;26.35;;;15.55;;
21128;SDS011;10722;51.910;8.352;2022-08-21T05:51:23;22.48;;;14.43;;
21128;SDS011;10722;51.910;8.352;2022-08-21T05:54:08;23.02;;;14.50;;
21128;SDS011;10722;51.910;8.352;2022-08-21T05:56:54;23.92;;;14.40;;
21128;SDS011;10722;51.910;8.352;2022-08-21T05:59:39;23.08;;;15.15;;
21128;SDS011;10722;51.910;8.352;2022-08-21T06:02:25;24.05;;;14.40;;
21128;SDS011;10722;51.910;8.352;2022-08-21T06:05:10;24.58;;;14.45;;
21128;SDS011;10722;51.910;8.352;2022-08-21T06:08:00;25.08;;;14.77;;
21128;SDS011;10722;51.910;8.352;2022-08-21T06:10:46;24.13;;;14.38;;
21128;SDS011;10722;51.910;8.352;2022-08-21T06:13:32;23.88;;;14.50;;
21128;SDS011;10722;51.910;8.352;2022-08-21T06:16:18;24.95;;;15.20;;
21128;SDS011;10722;51.910;8.352;2022-08-21T06:19:04;23.45;;;14.13;;
21128;SDS011;10722;51.910;8.352;2022-08-21T06:21:49;27.20;;;14.13;;
21128;SDS011;10722;51.910;8.352;2022-08-21T06:24:35;26.50;;;14.35;;
21128;SDS011;10722;51.910;8.352;2022-08-21T06:27:20;21.08;;;13.15;;
21128;SDS011;10722;51.910;8.352;2022-08-21T06:30:10;22.63;;;13.98;;
21128;SDS011;10722;51.910;8.352;2022-08-21T06:32:56;30.50;;;15.13;;
21128;SDS011;10722;51.910;8.352;2022-08-21T06:35:41;25.88;;;14.38;;
21128;SDS011;10722;51.910;8.352;2022-08-21T06:38:27;22.58;;;14.23;;
21128;SDS011;10722;51.910;8.352;2022-08-21T06:41:12;25.02;;;14.80;;
21128;SDS011;10722;51.910;8.352;2022-08-21T06:43:58;26.10;;;14.57;;
21128;SDS011;10722;51.910;8.352;2022-08-21T06:46:43;25.65;;;14.52;;
21128;SDS011;10722;51.910;8.352;2022-08-21T06:49:32;26.30;;;13.40;;
21128;SDS011;10722;51.910;8.352;2022-08-21T06:52:17;25.00;;;12.57;;
21128;SDS011;10722;51.910;8.352;2022-08-21T06:55:09;22.08;;;13.65;;
21128;SDS011;10722;51.910;8.352;2022-08-21T06:57:56;24.50;;;12.68;;
21128;SDS011;10722;51.910;8.352;2022-08-21T07:00:42;22.85;;;12.95;;
21128;SDS011;10722;51.910;8.352;2022-08-21T07:03:30;27.33;;;12.07;;
21128;SDS011;10722;51.910;8.352;2022-08-21T07:06:17;20.98;;;11.13;;
21128;SDS011;10722;51.910;8.352;2022-08-21T07:09:02;30.20;;;13.02;;
21128;SDS011;10722;51.910;8.352;2022-08-21T07:11:50;26.20;;;13.20;;
21128;SDS011;10722;51.910;8.352;2022-08-21T07:14:37;26.00;;;12.05;;
21128;SDS011;10722;51.910;8.352;2022-08-21T07:17:22;23.58;;;10.63;;
21128;SDS011;10722;51.910;8.352;2022-08-21T07:20:07;22.65;;;11.50;;
21128;SDS011;10722;51.910;8.352;2022-08-21T07:22:53;23.52;;;11.02;;
21128;SDS011;10722;51.910;8.352;2022-08-21T07:25:40;21.75;;;10.30;;
21128;SDS011;10722;51.910;8.352;2022-08-21T07:28:24;20.50;;;9.88;;
21128;SDS011;10722;51.910;8.352;2022-08-21T07:31:10;25.60;;;10.43;;
21128;SDS011;10722;51.910;8.352;2022-08-21T07:33:58;21.40;;;8.73;;
21128;SDS011;10722;51.910;8.352;2022-08-21T07:36:44;20.20;;;9.75;;
21128;SDS011;10722;51.910;8.352;2022-08-21T07:39:29;21.77;;;9.60;;
21128;SDS011;10722;51.910;8.352;2022-08-21T07:42:15;21.00;;;8.75;;
21128;SDS011;10722;51.910;8.352;2022-08-21T07:45:00;20.27;;;8.48;;
21128;SDS011;10722;51.910;8.352;2022-08-21T07:47:46;22.70;;;7.75;;
21128;SDS011;10722;51.910;8.352;2022-08-21T07:50:31;18.67;;;8.43;;
21128;SDS011;10722;51.910;8.352;2022-08-21T07:53:16;18.15;;;8.07;;
21128;SDS011;10722;51.910;8.352;2022-08-21T07:56:02;17.25;;;7.30;;
21128;SDS011;10722;51.910;8.352;2022-08-21T07:58:48;20.25;;;7.75;;
21128;SDS011;10722;51.910;8.352;2022-08-21T08:01:34;18.02;;;7.28;;
21128;SDS011;10722;51.910;8.352;2022-08-21T08:04:19;22.33;;;7.15;;
21128;SDS011;10722;51.910;8.352;2022-08-21T08:07:10;21.00;;;6.45;;
21128;SDS011;10722;51.910;8.352;2022-08-21T08:09:55;17.23;;;6.22;;
21128;SDS011;10722;51.910;8.352;2022-08-21T08:12:41;17.25;;;6.20;;
21128;SDS011;10722;51.910;8.352;2022-08-21T08:15:27;15.50;;;5.35;;
21128;SDS011;10722;51.910;8.352;2022-08-21T08:18:12;16.58;;;5.60;;
21128;SDS011;10722;51.910;8.352;2022-08-21T08:20:57;16.05;;;4.90;;
21128;SDS011;10722;51.910;8.352;2022-08-21T08:23:43;17.90;;;5.93;;
21128;SDS011;10722;51.910;8.352;2022-08-21T08:26:28;17.98;;;6.07;;
21128;SDS011;10722;51.910;8.352;2022-08-21T08:29:13;20.25;;;5.38;;
21128;SDS011;10722;51.910;8.352;2022-08-21T08:31:58;16.65;;;5.18;;
21128;SDS011;10722;51.910;8.352;2022-08-21T08:34:44;14.65;;;4.63;;
21128;SDS011;10722;51.910;8.352;2022-08-21T08:37:29;15.18;;;4.68;;
21128;SDS011;10722;51.910;8.352;2022-08-21T08:40:22;14.45;;;4.35;;
21128;SDS011;10722;51.910;8.352;2022-08-21T08:43:15;16.05;;;4.28;;
21128;SDS011;10722;51.910;8.352;2022-08-21T08:46:03;14.38;;;4.35;;
21128;SDS011;10722;51.910;8.352;2022-08-21T08:48:53;15.20;;;3.80;;
21128;SDS011;10722;51.910;8.352;2022-08-21T08:51:46;13.30;;;4.32;;
21128;SDS011;10722;51.910;8.352;2022-08-21T08:57:33;15.90;;;4.45;;
21128;SDS011;10722;51.910;8.352;2022-08-21T09:00:20;14.38;;;4.07;;
21128;SDS011;10722;51.910;8.352;2022-08-21T09:03:07;18.45;;;4.57;;
21128;SDS011;10722;51.910;8.352;2022-08-21T09:09:13;15.02;;;3.65;;
21128;SDS011;10722;51.910;8.352;2022-08-21T09:12:12;13.30;;;3.30;;
21128;SDS011;10722;51.910;8.352;2022-08-21T09:15:24;14.65;;;4.18;;
21128;SDS011;10722;51.910;8.352;2022-08-21T09:21:38;16.42;;;3.75;;
21128;SDS011;10722;51.910;8.352;2022-08-21T09:27:26;13.23;;;3.40;;
21128;SDS011;10722;51.910;8.352;2022-08-21T09:30:12;13.57;;;3.53;;
21128;SDS011;10722;51.910;8.352;2022-08-21T09:32:57;15.50;;;3.92;;
21128;SDS011;10722;51.910;8.352;2022-08-21T09:35:53;17.33;;;4.18;;
21128;SDS011;10722;51.910;8.352;2022-08-21T09:38:40;14.07;;;3.75;;
21128;SDS011;10722;51.910;8.352;2022-08-21T09:41:28;13.10;;;3.45;;
21128;SDS011;10722;51.910;8.352;2022-08-21T09:44:23;16.23;;;3.38;;
21128;SDS011;10722;51.910;8.352;2022-08-21T09:47:11;14.18;;;3.15;;
21128;SDS011;10722;51.910;8.352;2022-08-21T09:50:06;15.65;;;3.10;;
21128;SDS011;10722;51.910;8.352;2022-08-21T09:52:57;10.88;;;2.85;;
21128;SDS011;10722;51.910;8.352;2022-08-21T09:55:58;13.70;;;3.42;;
21128;SDS011;10722;51.910;8.352;2022-08-21T09:58:47;13.77;;;3.45;;
21128;SDS011;10722;51.910;8.352;2022-08-21T10:01:41;14.23;;;3.67;;
21128;SDS011;10722;51.910;8.352;2022-08-21T10:04:32;14.18;;;3.20;;
21128;SDS011;10722;51.910;8.352;2022-08-21T10:07:21;12.73;;;2.90;;
21128;SDS011;10722;51.910;8.352;2022-08-21T10:10:13;12.90;;;3.00;;
21128;SDS011;10722;51.910;8.352;2022-08-21T10:13:17;12.73;;;3.13;;
21128;SDS011;10722;51.910;8.352;2022-08-21T10:33:53;13.82;;;2.90;;
21128;SDS011;10722;51.910;8.352;2022-08-21T10:43:19;16.38;;;3.28;;
21128;SDS011;10722;51.910;8.352;2022-08-21T10:55:16;12.77;;;3.13;;
21128;SDS011;10722;51.910;8.352;2022-08-21T10:58:12;15.30;;;3.30;;
21128;SDS011;10722;51.910;8.352;2022-08-21T11:04:19;15.10;;;3.42;;
21128;SDS011;10722;51.910;8.352;2022-08-21T11:10:06;16.73;;;3.58;;
21128;SDS011;10722;51.910;8.352;2022-08-21T11:13:01;14.07;;;3.22;;
21128;SDS011;10722;51.910;8.352;2022-08-21T11:15:53;15.82;;;3.55;;
21128;SDS011;10722;51.910;8.352;2022-08-21T11:18:47;15.00;;;3.63;;
21128;SDS011;10722;51.910;8.352;2022-08-21T11:21:39;12.65;;;3.00;;
21128;SDS011;10722;51.910;8.352;2022-08-21T11:27:28;13.38;;;3.25;;
21128;SDS011;10722;51.910;8.352;2022-08-21T11:30:21;14.25;;;3.20;;
21128;SDS011;10722;51.910;8.352;2022-08-21T11:36:17;16.30;;;3.80;;
21128;SDS011;10722;51.910;8.352;2022-08-21T11:39:30;13.15;;;3.30;;
21128;SDS011;10722;51.910;8.352;2022-08-21T11:45:45;11.32;;;3.25;;
21128;SDS011;10722;51.910;8.352;2022-08-21T11:55:19;17.45;;;4.00;;
21128;SDS011;10722;51.910;8.352;2022-08-21T11:58:25;13.45;;;3.00;;
21128;SDS011;10722;51.910;8.352;2022-08-21T12:01:17;11.98;;;3.50;;
21128;SDS011;10722;51.910;8.352;2022-08-21T12:04:09;14.18;;;3.03;;
21128;SDS011;10722;51.910;8.352;2022-08-21T12:07:09;12.32;;;2.40;;
21128;SDS011;10722;51.910;8.352;2022-08-21T12:09:57;10.70;;;2.65;;
21128;SDS011;10722;51.910;8.352;2022-08-21T12:12:44;11.38;;;2.15;;
21128;SDS011;10722;51.910;8.352;2022-08-21T12:15:29;10.30;;;2.30;;
21128;SDS011;10722;51.910;8.352;2022-08-21T12:18:20;7.40;;;1.80;;
21128;SDS011;10722;51.910;8.352;2022-08-21T12:21:23;8.15;;;2.00;;
21128;SDS011;10722;51.910;8.352;2022-08-21T12:27:12;10.77;;;2.20;;
21128;SDS011;10722;51.910;8.352;2022-08-21T12:30:21;14.60;;;2.40;;
21128;SDS011;10722;51.910;8.352;2022-08-21T12:36:14;10.77;;;2.20;;
21128;SDS011;10722;51.910;8.352;2022-08-21T12:39:04;9.07;;;1.90;;
21128;SDS011;10722;51.910;8.352;2022-08-21T12:44:50;8.32;;;2.00;;
21128;SDS011;10722;51.910;8.352;2022-08-21T12:47:44;7.53;;;1.90;;
21128;SDS011;10722;51.910;8.352;2022-08-21T12:50:38;10.20;;;1.92;;
21128;SDS011;10722;51.910;8.352;2022-08-21T12:53:40;9.57;;;2.10;;
21128;SDS011;10722;51.910;8.352;2022-08-21T12:56:31;49.55;;;41.67;;
21128;SDS011;10722;51.910;8.352;2022-08-21T12:59:17;30.33;;;19.35;;
21128;SDS011;10722;51.910;8.352;2022-08-21T13:02:10;9.68;;;2.10;;
21128;SDS011;10722;51.910;8.352;2022-08-21T13:05:02;7.10;;;1.65;;
21128;SDS011;10722;51.910;8.352;2022-08-21T13:07:49;7.05;;;1.77;;
21128;SDS011;10722;51.910;8.352;2022-08-21T13:10:35;7.90;;;1.92;;
21128;SDS011;10722;51.910;8.352;2022-08-21T13:13:22;10.18;;;2.10;;
21128;SDS011;10722;51.910;8.352;2022-08-21T13:16:12;11.75;;;2.05;;
21128;SDS011;10722;51.910;8.352;2022-08-21T13:21:44;8.27;;;2.00;;
21128;SDS011;10722;51.910;8.352;2022-08-21T13:24:30;7.82;;;1.83;;
21128;SDS011;10722;51.910;8.352;2022-08-21T13:27:29;7.40;;;1.67;;
21128;SDS011;10722;51.910;8.352;2022-08-21T13:30:19;8.43;;;2.00;;
21128;SDS011;10722;51.910;8.352;2022-08-21T13:33:06;8.43;;;1.98;;
21128;SDS011;10722;51.910;8.352;2022-08-21T13:36:11;8.50;;;1.80;;
21128;SDS011;10722;51.910;8.352;2022-08-21T13:39:03;12.95;;;2.40;;
21128;SDS011;10722;51.910;8.352;2022-08-21T13:41:52;10.15;;;2.28;;
21128;SDS011;10722;51.910;8.352;2022-08-21T13:44:44;9.80;;;2.05;;
21128;SDS011;10722;51.910;8.352;2022-08-21T13:47:30;8.40;;;2.17;;
21128;SDS011;10722;51.910;8.352;2022-08-21T13:50:16;9.93;;;2.08;;
21128;SDS011;10722;51.910;8.352;2022-08-21T13:53:06;10.25;;;2.03;;
21128;SDS011;10722;51.910;8.352;2022-08-21T13:56:04;10.02;;;2.13;;
21128;SDS011;10722;51.910;8.352;2022-08-21T13:58:50;10.23;;;1.98;;
21128;SDS011;10722;51.910;8.352;2022-08-21T14:01:36;9.95;;;2.03;;
21128;SDS011;10722;51.910;8.352;2022-08-21T14:04:33;11.30;;;2.40;;
21128;SDS011;10722;51.910;8.352;2022-08-21T14:07:24;8.40;;;2.15;;
21128;SDS011;10722;51.910;8.352;2022-08-21T14:10:17;11.75;;;2.10;;
21128;SDS011;10722;51.910;8.352;2022-08-21T14:13:05;7.82;;;1.90;;
21128;SDS011;10722;51.910;8.352;2022-08-21T14:15:56;8.98;;;1.90;;
21128;SDS011;10722;51.910;8.352;2022-08-21T14:18:44;8.70;;;2.15;;
21128;SDS011;10722;51.910;8.352;2022-08-21T14:21:39;7.30;;;1.80;;
21128;SDS011;10722;51.910;8.352;2022-08-21T14:24:28;7.22;;;1.75;;
21128;SDS011;10722;51.910;8.352;2022-08-21T14:27:16;7.70;;;1.70;;
21128;SDS011;10722;51.910;8.352;2022-08-21T14:30:08;7.15;;;1.80;;
21128;SDS011;10722;51.910;8.352;2022-08-21T14:32:57;8.27;;;1.48;;
21128;SDS011;10722;51.910;8.352;2022-08-21T14:35:43;6.55;;;1.40;;
21128;SDS011;10722;51.910;8.352;2022-08-21T14:38:29;6.00;;;1.40;;
21128;SDS011;10722;51.910;8.352;2022-08-21T14:41:19;8.45;;;1.70;;
21128;SDS011;10722;51.910;8.352;2022-08-21T14:44:09;7.40;;;1.60;;
21128;SDS011;10722;51.910;8.352;2022-08-21T14:46:55;4.60;;;1.33;;
21128;SDS011;10722;51.910;8.352;2022-08-21T14:49:41;5.88;;;1.48;;
21128;SDS011;10722;51.910;8.352;2022-08-21T14:52:26;6.15;;;1.42;;
21128;SDS011;10722;51.910;8.352;2022-08-21T14:55:12;5.43;;;1.20;;
21128;SDS011;10722;51.910;8.352;2022-08-21T14:57:59;8.05;;;1.60;;
21128;SDS011;10722;51.910;8.352;2022-08-21T15:00:45;5.45;;;1.50;;
21128;SDS011;10722;51.910;8.352;2022-08-21T15:03:30;5.85;;;1.48;;
21128;SDS011;10722;51.910;8.352;2022-08-21T15:06:16;4.72;;;1.40;;
21128;SDS011;10722;51.910;8.352;2022-08-21T15:09:02;5.47;;;1.45;;
21128;SDS011;10722;51.910;8.352;2022-08-21T15:11:47;8.85;;;1.75;;
21128;SDS011;10722;51.910;8.352;2022-08-21T15:14:34;9.40;;;2.03;;
21128;SDS011;10722;51.910;8.352;2022-08-21T15:17:22;8.10;;;1.30;;
21128;SDS011;10722;51.910;8.352;2022-08-21T15:20:08;7.10;;;1.58;;
21128;SDS011;10722;51.910;8.352;2022-08-21T15:22:54;7.70;;;1.60;;
21128;SDS011;10722;51.910;8.352;2022-08-21T15:25:40;6.90;;;1.63;;
21128;SDS011;10722;51.910;8.352;2022-08-21T15:28:27;6.60;;;1.42;;
21128;SDS011;10722;51.910;8.352;2022-08-21T15:31:16;8.15;;;1.52;;
21128;SDS011;10722;51.910;8.352;2022-08-21T15:34:01;9.60;;;1.50;;
21128;SDS011;10722;51.910;8.352;2022-08-21T15:36:46;8.93;;;1.48;;
21128;SDS011;10722;51.910;8.352;2022-08-21T15:39:32;9.63;;;2.10;;
21128;SDS011;10722;51.910;8.352;2022-08-21T15:42:21;9.90;;;2.00;;
21128;SDS011;10722;51.910;8.352;2022-08-21T15:45:07;9.93;;;1.67;;
21128;SDS011;10722;51.910;8.352;2022-08-21T15:47:54;8.77;;;1.60;;
21128;SDS011;10722;51.910;8.352;2022-08-21T15:50:40;9.07;;;1.60;;
21128;SDS011;10722;51.910;8.352;2022-08-21T15:53:26;8.30;;;1.67;;
21128;SDS011;10722;51.910;8.352;2022-08-21T15:56:27;8.35;;;1.67;;
21128;SDS011;10722;51.910;8.352;2022-08-21T15:59:20;8.60;;;1.90;;
21128;SDS011;10722;51.910;8.352;2022-08-21T16:02:08;7.75;;;1.55;;
21128;SDS011;10722;51.910;8.352;2022-08-21T16:05:00;8.07;;;1.73;;
21128;SDS011;10722;51.910;8.352;2022-08-21T16:07:46;6.03;;;1.50;;
21128;SDS011;10722;51.910;8.352;2022-08-21T16:10:32;9.80;;;1.77;;
21128;SDS011;10722;51.910;8.352;2022-08-21T16:13:20;8.20;;;2.00;;
21128;SDS011;10722;51.910;8.352;2022-08-21T16:16:10;7.82;;;1.70;;
21128;SDS011;10722;51.910;8.352;2022-08-21T16:18:57;8.35;;;1.92;;
21128;SDS011;10722;51.910;8.352;2022-08-21T16:21:42;5.90;;;1.42;;
21128;SDS011;10722;51.910;8.352;2022-08-21T16:24:27;9.55;;;1.90;;
21128;SDS011;10722;51.910;8.352;2022-08-21T16:27:13;11.48;;;3.28;;
21128;SDS011;10722;51.910;8.352;2022-08-21T16:29:59;11.40;;;2.60;;
21128;SDS011;10722;51.910;8.352;2022-08-21T16:32:44;7.63;;;2.08;;
21128;SDS011;10722;51.910;8.352;2022-08-21T16:35:30;7.28;;;1.63;;
21128;SDS011;10722;51.910;8.352;2022-08-21T16:38:16;9.52;;;2.22;;
21128;SDS011;10722;51.910;8.352;2022-08-21T16:41:01;6.80;;;1.80;;
21128;SDS011;10722;51.910;8.352;2022-08-21T16:43:50;6.82;;;1.63;;
21128;SDS011;10722;51.910;8.352;2022-08-21T16:46:37;6.95;;;1.52;;
21128;SDS011;10722;51.910;8.352;2022-08-21T16:49:24;4.97;;;1.50;;
21128;SDS011;10722;51.910;8.352;2022-08-21T16:52:09;7.10;;;1.65;;
21128;SDS011;10722;51.910;8.352;2022-08-21T16:54:54;7.22;;;1.77;;
21128;SDS011;10722;51.910;8.352;2022-08-21T16:57:39;7.25;;;1.50;;
21128;SDS011;10722;51.910;8.352;2022-08-21T17:00:24;7.88;;;1.80;;
21128;SDS011;10722;51.910;8.352;2022-08-21T17:03:13;7.13;;;1.77;;
21128;SDS011;10722;51.910;8.352;2022-08-21T17:06:01;9.85;;;1.83;;
21128;SDS011;10722;51.910;8.352;2022-08-21T17:08:48;8.85;;;1.77;;
21128;SDS011;10722;51.910;8.352;2022-08-21T17:11:37;6.72;;;1.70;;
21128;SDS011;10722;51.910;8.352;2022-08-21T17:14:26;5.85;;;1.80;;
21128;SDS011;10722;51.910;8.352;2022-08-21T17:17:11;9.38;;;1.77;;
21128;SDS011;10722;51.910;8.352;2022-08-21T17:19:56;7.82;;;1.70;;
21128;SDS011;10722;51.910;8.352;2022-08-21T17:22:42;9.30;;;1.98;;
21128;SDS011;10722;51.910;8.352;2022-08-21T17:25:27;5.72;;;1.50;;
21128;SDS011;10722;51.910;8.352;2022-08-21T17:28:15;11.52;;;2.30;;
21128;SDS011;10722;51.910;8.352;2022-08-21T17:31:05;9.15;;;1.90;;
21128;SDS011;10722;51.910;8.352;2022-08-21T17:33:54;6.43;;;1.50;;
21128;SDS011;10722;51.910;8.352;2022-08-21T17:36:40;4.45;;;1.50;;
21128;SDS011;10722;51.910;8.352;2022-08-21T17:39:25;7.85;;;1.70;;
21128;SDS011;10722;51.910;8.352;2022-08-21T17:42:11;8.23;;;1.60;;
21128;SDS011;10722;51.910;8.352;2022-08-21T17:44:57;9.52;;;1.67;;
21128;SDS011;10722;51.910;8.352;2022-08-21T17:47:43;5.95;;;1.70;;
21128;SDS011;10722;51.910;8.352;2022-08-21T17:50:28;6.95;;;1.88;;
21128;SDS011;10722;51.910;8.352;2022-08-21T17:53:13;7.22;;;1.77;;
21128;SDS011;10722;51.910;8.352;2022-08-21T17:55:59;8.23;;;1.80;;
21128;SDS011;10722;51.910;8.352;2022-08-21T17:58:47;7.97;;;1.85;;
21128;SDS011;10722;51.910;8.352;2022-08-21T18:01:35;8.70;;;1.92;;